createdAt,value
2018-11-14T00:01:39.257Z,3.20
2018-11-14T00:06:46.688Z,3.10
2018-11-14T00:12:09.299Z,3.27
2018-11-14T00:17:13.501Z,3.20
2018-11-14T00:22:17.992Z,3.30
2018-11-14T00:27:22.135Z,3.20
2018-11-14T00:32:26.633Z,3.15
2018-11-14T00:37:30.797Z,3.50
2018-11-14T00:42:35.555Z,3.47
2018-11-14T00:47:40.301Z,3.20
2018-11-14T00:52:45.485Z,3.30
2018-11-14T00:57:50.608Z,3.37
2018-11-14T01:02:55.285Z,3.50
2018-11-14T01:08:02.708Z,3.50
2018-11-14T01:13:07.266Z,3.37
2018-11-14T01:18:11.606Z,3.93
2018-11-14T01:23:16.076Z,3.87
2018-11-14T01:28:20.564Z,3.80
2018-11-14T01:33:25.680Z,3.97
2018-11-14T01:38:29.812Z,3.52
2018-11-14T01:43:33.980Z,3.85
2018-11-14T01:48:38.108Z,4.23
2018-11-14T01:53:42.254Z,4.17
2018-11-14T01:58:47.040Z,4.27
2018-11-14T02:03:51.494Z,3.97
2018-11-14T02:08:59.789Z,3.90
2018-11-14T02:14:03.967Z,4.03
2018-11-14T02:19:08.127Z,4.10
2018-11-14T02:24:12.311Z,4.37
2018-11-14T02:29:17.090Z,4.30
2018-11-14T02:34:21.881Z,4.23
2018-11-14T02:39:26.712Z,4.70
2018-11-14T02:44:30.847Z,4.63
2018-11-14T02:49:35.325Z,4.30
2018-11-14T02:54:39.477Z,4.75
2018-11-14T02:59:43.610Z,4.30
2018-11-14T03:04:47.813Z,4.73
2018-11-14T03:09:53.004Z,4.67
2018-11-14T03:14:57.477Z,5.20
2018-11-14T03:20:01.656Z,4.63
2018-11-14T03:25:07.116Z,4.80
2018-11-14T03:30:13.482Z,4.45
2018-11-14T03:35:18.261Z,4.57
2018-11-14T03:40:22.732Z,5.05
2018-11-14T03:45:27.225Z,5.05
2018-11-14T03:50:32.125Z,4.93
2018-11-14T03:55:36.625Z,5.30
2018-11-14T04:00:41.090Z,4.50
2018-11-14T04:05:45.253Z,4.93
2018-11-14T04:10:53.381Z,4.97
2018-11-14T04:15:57.878Z,5.03
2018-11-14T04:21:02.393Z,4.62
2018-11-14T04:26:07.181Z,4.40
2018-11-14T04:31:11.387Z,4.87
2018-11-14T04:36:15.913Z,5.30
2018-11-14T04:41:20.068Z,4.78
2018-11-14T04:46:24.286Z,5.43
2018-11-14T04:51:28.663Z,4.83
2018-11-14T04:56:33.116Z,4.97
2018-11-14T05:01:37.397Z,5.70
2018-11-14T05:06:45.356Z,5.23
2018-11-14T05:11:51.380Z,5.27
2018-11-14T05:16:55.541Z,5.83
2018-11-14T05:22:00.062Z,5.62
2018-11-14T05:27:04.845Z,5.40
2018-11-14T05:32:09.339Z,5.60
2018-11-14T05:37:13.578Z,5.67
2018-11-14T05:42:18.422Z,6.00
2018-11-14T05:47:22.561Z,5.27
2018-11-14T05:52:26.710Z,5.87
2018-11-14T05:57:31.168Z,5.93
2018-11-14T06:02:35.662Z,5.83
2018-11-14T06:07:40.155Z,5.72
2018-11-14T06:12:46.780Z,5.57
2018-11-14T06:17:52.101Z,6.30
2018-11-14T06:22:56.579Z,6.03
2018-11-14T06:28:01.802Z,5.90
2018-11-14T06:33:07.075Z,6.00
2018-11-14T06:38:11.248Z,5.90
2018-11-14T06:43:15.738Z,5.80
2018-11-14T06:48:20.462Z,6.37
2018-11-14T06:53:24.661Z,4.93
2018-11-14T06:58:28.789Z,6.15
2018-11-14T07:03:34.661Z,6.43
2018-11-14T07:08:40.427Z,6.57
2018-11-14T07:13:44.961Z,6.95
2018-11-14T07:18:49.760Z,6.20
2018-11-14T07:23:53.947Z,7.10
2018-11-14T07:28:58.453Z,6.67
2018-11-14T07:34:02.618Z,6.60
2018-11-14T07:39:09.432Z,6.42
2018-11-14T07:44:13.882Z,7.20
2018-11-14T07:49:18.292Z,7.57
2018-11-14T07:54:23.131Z,7.35
2018-11-14T07:59:27.943Z,7.20
2018-11-14T08:04:32.461Z,6.33
2018-11-14T08:09:37.445Z,7.43
2018-11-14T08:14:41.924Z,7.33
2018-11-14T08:19:46.293Z,7.50
2018-11-14T08:24:50.588Z,6.87
2018-11-14T08:29:55.016Z,7.90
2018-11-14T08:34:59.813Z,6.90
2018-11-14T08:40:05.367Z,6.90
2018-11-14T08:45:10.641Z,7.13
2018-11-14T08:50:15.982Z,7.60
2018-11-14T08:55:20.729Z,8.25
2018-11-14T09:00:26.618Z,7.73
2018-11-14T09:05:31.819Z,7.77
2018-11-14T09:10:36.009Z,7.20
2018-11-14T09:15:40.664Z,7.25
2018-11-14T09:20:45.159Z,7.50
2018-11-14T09:25:49.721Z,7.40
2018-11-14T09:30:54.189Z,6.90
2018-11-14T09:35:58.710Z,7.75
2018-11-14T09:41:02.954Z,6.87
2018-11-14T09:46:07.567Z,8.28
2018-11-14T09:51:11.729Z,7.47
2018-11-14T09:56:16.131Z,7.00
2018-11-14T10:01:20.779Z,7.12
2018-11-14T10:06:25.233Z,6.53
2018-11-14T10:11:30.309Z,7.07
2018-11-14T10:16:35.100Z,7.43
2018-11-14T10:21:40.274Z,7.37
2018-11-14T10:26:44.888Z,7.15
2018-11-14T10:31:49.491Z,7.60
2018-11-14T10:36:53.797Z,7.35
2018-11-14T10:41:58.897Z,7.67
2018-11-14T10:47:03.365Z,7.65
2018-11-14T10:52:07.846Z,7.40
2018-11-14T10:57:12.359Z,7.07
2018-11-14T11:02:22.173Z,7.60
2018-11-14T11:07:32.467Z,7.33
2018-11-14T11:12:43.270Z,7.00
2018-11-14T11:17:53.204Z,7.20
2018-11-14T11:22:57.674Z,6.37
2018-11-14T11:28:01.806Z,6.12
2018-11-14T11:33:06.445Z,6.50
2018-11-14T11:38:10.960Z,6.45
2018-11-14T11:43:15.545Z,5.50
2018-11-14T11:48:20.029Z,6.70
2018-11-14T11:53:24.145Z,5.70
2018-11-14T11:58:28.312Z,5.97
2018-11-14T12:03:32.904Z,6.20
2018-11-14T12:08:37.674Z,5.80
2018-11-14T12:13:45.805Z,7.10
2018-11-14T12:18:50.343Z,5.67
2018-11-14T12:23:54.814Z,5.53
2018-11-14T12:28:59.254Z,5.57
2018-11-14T12:34:03.438Z,5.45
2018-11-14T12:39:08.127Z,6.00
2018-11-14T12:44:12.735Z,5.00
2018-11-14T12:49:17.024Z,5.05
2018-11-14T12:54:21.624Z,5.12
2018-11-14T12:59:25.855Z,5.55
2018-11-14T13:04:30.828Z,4.80
2018-11-14T13:09:35.285Z,5.33
2018-11-14T13:14:41.107Z,5.30
2018-11-14T13:19:45.906Z,5.17
2018-11-14T13:24:50.388Z,5.60
2018-11-14T13:29:55.240Z,5.60
2018-11-14T13:34:59.989Z,4.95
2018-11-14T13:40:05.281Z,4.75
2018-11-14T13:45:11.287Z,5.22
2018-11-14T13:50:19.236Z,5.10
2018-11-14T13:55:23.599Z,5.22
2018-11-14T14:00:28.308Z,4.97
2018-11-14T14:05:32.892Z,5.33
2018-11-14T14:10:37.665Z,5.07
2018-11-14T14:15:43.824Z,4.70
2018-11-14T14:20:48.181Z,4.80
2018-11-14T14:25:53.019Z,4.20
2018-11-14T14:30:57.378Z,4.40
2018-11-14T14:36:02.062Z,4.97
2018-11-14T14:41:06.560Z,4.67
2018-11-14T14:46:11.168Z,4.50
2018-11-14T14:51:16.333Z,4.07
2018-11-14T14:56:21.184Z,4.77
2018-11-14T15:01:26.507Z,4.50
2018-11-14T15:06:31.059Z,5.37
2018-11-14T15:11:38.549Z,6.00
2018-11-14T15:16:43.046Z,4.90
2018-11-14T15:21:48.291Z,5.70
2018-11-14T15:26:52.731Z,6.00
2018-11-14T15:31:57.193Z,5.40
2018-11-14T15:37:02.253Z,5.27
2018-11-14T15:42:07.168Z,5.90
2018-11-14T15:47:11.670Z,5.50
2018-11-14T15:52:16.393Z,5.17
2018-11-14T15:57:21.250Z,6.00
2018-11-14T16:02:25.714Z,5.00
2018-11-14T16:07:29.878Z,4.70
2018-11-14T16:12:39.806Z,5.67
2018-11-14T16:17:44.342Z,5.40
2018-11-14T16:22:48.874Z,5.77
2018-11-14T16:27:55.084Z,5.27
2018-11-14T16:33:01.115Z,5.58
2018-11-14T16:38:05.365Z,5.80
2018-11-14T16:43:10.252Z,6.12
2018-11-14T16:48:14.709Z,5.83
2018-11-14T16:53:19.350Z,5.35
2018-11-14T16:58:23.523Z,5.33
2018-11-14T17:03:28.711Z,6.30
2018-11-14T17:08:33.032Z,6.75
2018-11-14T17:13:39.137Z,6.20
2018-11-14T17:18:43.628Z,7.10
2018-11-14T17:23:48.821Z,6.97
2018-11-14T17:28:53.007Z,7.10
2018-11-14T17:33:57.848Z,8.45
2018-11-14T17:39:02.741Z,7.33
2018-11-14T17:44:07.275Z,8.73
2018-11-14T17:49:11.543Z,8.13
2018-11-14T17:54:15.435Z,8.97
2018-11-14T17:59:20.289Z,8.83
2018-11-14T18:04:25.463Z,9.80
2018-11-14T18:09:29.614Z,10.65
2018-11-14T18:14:34.235Z,11.37
2018-11-14T18:19:38.633Z,12.47
2018-11-14T18:24:43.152Z,12.07
2018-11-14T18:29:47.365Z,12.43
2018-11-14T18:34:51.718Z,13.90
2018-11-14T18:39:56.194Z,13.80
2018-11-14T18:45:00.692Z,13.50
2018-11-14T18:50:05.014Z,12.07
2018-11-14T18:55:11.308Z,11.63
2018-11-14T19:00:17.913Z,11.13
2018-11-14T19:05:23.141Z,10.83
2018-11-14T19:10:28.703Z,11.07
2018-11-14T19:15:34.258Z,10.63
2018-11-14T19:20:39.124Z,9.65
2018-11-14T19:25:43.606Z,10.27
2018-11-14T19:30:47.820Z,10.17
2018-11-14T19:35:52.554Z,11.03
2018-11-14T19:40:57.187Z,9.93
2018-11-14T19:46:01.247Z,11.53
2018-11-14T19:51:06.628Z,11.03
2018-11-14T19:56:11.399Z,10.47
2018-11-14T20:01:15.600Z,10.88
2018-11-14T20:06:20.125Z,11.07
2018-11-14T20:11:24.407Z,10.50
2018-11-14T20:16:30.803Z,9.93
2018-11-14T20:21:35.315Z,9.87
2018-11-14T20:26:39.632Z,10.18
2018-11-14T20:36:53.423Z,10.10
2018-11-14T20:41:58.215Z,9.70
2018-11-14T20:47:02.713Z,10.23
2018-11-14T20:52:06.855Z,9.70
2018-11-14T20:57:10.965Z,9.63
2018-11-14T21:02:15.479Z,9.10
2018-11-14T21:07:19.946Z,10.40
2018-11-14T21:12:24.778Z,9.58
2018-11-14T21:17:30.979Z,10.50
2018-11-14T21:22:35.823Z,9.13
2018-11-14T21:27:41.896Z,10.53
2018-11-14T21:32:46.729Z,9.97
2018-11-14T21:37:52.524Z,9.58
2018-11-14T21:42:57.315Z,8.97
2018-11-14T21:48:06.933Z,9.77
2018-11-14T21:53:11.263Z,10.17
2018-11-14T21:58:15.471Z,9.65
2018-11-14T22:03:20.314Z,9.80
2018-11-14T22:08:24.822Z,10.98
2018-11-14T22:13:29.258Z,10.60
2018-11-14T22:18:34.438Z,10.07
2018-11-14T22:23:38.718Z,10.80
2018-11-14T22:28:42.950Z,10.43
2018-11-14T22:33:47.743Z,10.33
2018-11-14T22:38:52.440Z,9.73
2018-11-14T22:43:56.825Z,9.90
2018-11-14T22:49:01.226Z,9.60
2018-11-14T22:54:05.688Z,10.23
2018-11-14T22:59:10.151Z,9.58
2018-11-14T23:04:14.289Z,9.70
2018-11-14T23:09:18.658Z,8.48
2018-11-14T23:14:23.677Z,9.60
2018-11-14T23:19:28.194Z,9.60
2018-11-14T23:24:32.679Z,8.83
2018-11-14T23:29:37.161Z,8.40
2018-11-14T23:34:46.656Z,7.55
2018-11-14T23:39:51.201Z,7.80
2018-11-14T23:44:56.024Z,8.50
2018-11-14T23:50:00.774Z,7.37
2018-11-14T23:55:04.966Z,8.30
